Shotley Gate, United Kingdom
Current Conditions -  °F | °C
As of 12:50 PM on Friday 31 Oct 2014 (Local Time) from EGUW Reporting Station
Clear Clear  
Wind Chill: 66°   Ceiling: Unl
Heat Index: 66°   Visibility: 6mi
Dew Point: 57°   Wind: 10mph
Humidity: 73%   Direction: 150°SSE
Pressure: 30.03"   Gusts: NA
Location:  51.96°N, 1.27°E
Report Text: EGUW 311250Z 15009KT CAVOK 19/14 Q1017 BLU NOSIG
Loading
Personal Weather Stations






























Interactive Weather Map
Tropical Storm Tracking
New forecast layout! Learn more

10-Day Weather Forecast

Advertisements
Track Severe Weather on mobile